• Join FlightAware (Why Join?)
  • Login
  • US Flag 
05:07PM EDT


 

Airport Tracker/Info


-or-


 

Live Flight TrackerFlight Track Log ✈ SWA695 ✈ 31-Jul-2014 ✈ KLAX - KHOU

Flight Track Log - Related Links

Times and Time Zones

All times are in EDT time to prevent confusion due to time zone crossing. See the SWA695 flight status page for this flight to view local times or setup timezone preferences in your user account.

Time Position Orientation Groundspeed Altitude Reporting Facility
EDT Latitude Longitude Course Direction KTS MPH feet Rate Location/Type
07:44PM 33.8636 -118.4897 205° Southwest 245 282 3,000  Level Los Angeles Center
07:46PM 33.7925 -118.5036 189° South 263 303 5,000 1,920 Climbing Los Angeles Center
07:47PM 33.7189 -118.5042 180° South 276 318 7,100 2,460 Climbing Los Angeles Center
07:48PM 33.6686 -118.4083 122° Southeast 292 336 10,200 2,580 Climbing Los Angeles Center
07:49PM 33.6334 -118.2673 90° East  Level FlightAware Approximate
07:49PM 33.6417 -118.3078 108° East 326 375 12,500  Level Los Angeles Center
07:50PM 33.6439 -118.1897 89° East 361 415 14,100 1,860 Climbing Los Angeles Center
07:51PM 33.6436 -118.0575 90° East 398 458 16,400 2,460 Climbing Los Angeles Center
07:52PM 33.6433 -117.8942 90° East 410 472 19,300 2,400 Climbing Los Angeles Center
07:53PM 33.6436 -117.7525 90° East 423 487 21,500 1,860 Climbing Los Angeles Center
07:54PM 33.6431 -117.6053 90° East 438 504 23,200 1,620 Climbing Los Angeles Center
07:55PM 33.6419 -117.4519 90° East 455 524 24,900 1,620 Climbing Los Angeles Center
07:56PM 33.6386 -117.2956 91° East 467 537 26,600 1,800 Climbing Los Angeles Center
07:57PM 33.6136 -117.1075 99° East 477 549 28,700 1,740 Climbing Los Angeles Center
07:58PM 33.5958 -116.9522 98° East 473 544 30,300 1,380 Climbing Los Angeles Center
07:59PM 33.5775 -116.8081 99° East 475 547 31,600 1,800 Climbing Los Angeles Center
08:00PM 33.5542 -116.6194 98° East 474 545 34,100 1,980 Climbing Los Angeles Center
08:01PM 33.5358 -116.4697 98° East 456 525 35,800 1,200 Climbing Los Angeles Center
08:02PM 33.5181 -116.3219 98° East 445 512 36,600 540 Climbing Los Angeles Center
08:03PM 33.4978 -116.1686 99° East 459 528 37,000 180 Climbing Los Angeles Center
08:04PM 33.4781 -116.0156 99° East 463 533 37,000  Level Los Angeles Center
08:05PM 33.4581 -115.8644 99° East 462 532 37,000  Level Los Angeles Center
08:06PM 33.4381 -115.7144 99° East 456 525 37,000  Level Los Angeles Center
08:07PM 33.4142 -115.5347 99° East 456 525 37,000  Level Los Angeles Center
08:08PM 33.3956 -115.3861 98° East 455 524 37,000  Level Los Angeles Center
08:09PM 33.3744 -115.2361 100° East 455 524 37,000  Level Los Angeles Center
08:10PM 33.3533 -115.0844 99° East 456 525 37,000  Level Los Angeles Center
08:11PM 33.3331 -114.9339 99° East 459 528 37,000  Level Los Angeles Center
08:12PM 33.3103 -114.7789 100° East 464 534 37,000  Level Los Angeles Center
08:13PM 33.2864 -114.5994 99° East 461 531 37,000  Level Los Angeles Center
08:15PM 33.2667 -114.4478 99° East 461 531 37,000  Level Los Angeles Center
08:16PM 33.2453 -114.2964 100° East 460 529 37,000  Level Los Angeles Center
08:17PM 33.2261 -114.1464 99° East 460 529 37,000  Level Los Angeles Center
08:18PM 33.2031 -113.9964 100° East 460 529 37,000  Level Los Angeles Center
08:19PM 33.1775 -113.8167 100° East 459 528 37,000  Level Los Angeles Center
08:20PM 33.1558 -113.6694 100° East 457 526 37,000  Level Los Angeles Center
08:21PM 33.1297 -113.5194 102° East 457 526 37,000  Level Los Angeles Center
08:22PM 33.1050 -113.3686 101° East 458 527 37,000  Level Los Angeles Center
08:23PM 33.0833 -113.2156 100° East 460 529 37,000  Level Los Angeles Center
08:24PM 33.0603 -113.0647 100° East 461 531 37,000  Level Los Angeles Center
08:25PM 33.0275 -112.8514 100° East 461 531 37,000  Level Albuquerque Center
08:26PM 33.0036 -112.7028 101° East 459 528 37,000  Level Albuquerque Center
08:27PM 32.9800 -112.5533 101° East 458 527 37,000  Level Albuquerque Center
08:28PM 32.9561 -112.4033 101° East 458 527 37,000  Level Albuquerque Center
08:29PM 32.9292 -112.2347 101° East 459 528 37,000  Level Albuquerque Center
08:30PM 32.9056 -112.0858 101° East 459 528 37,000  Level Albuquerque Center
08:31PM 32.8814 -111.9397 101° East 458 527 37,000  Level Albuquerque Center
08:32PM 32.8581 -111.7919 101° East 457 526 37,000  Level Albuquerque Center
08:33PM 32.8336 -111.6464 101° East 457 526 37,000 180 Level Albuquerque Center
08:35PM 32.7806 -111.3314 104° East 447 514 37,700 540 Climbing Albuquerque Center
08:37PM 32.7564 -111.1878 101° East 446 513 38,700 600 Climbing Albuquerque Center
08:38PM 32.7314 -111.0450 102° East 445 512 39,000 120 Climbing Albuquerque Center
08:39PM 32.7072 -110.9017 101° East 445 512 39,000  Level Albuquerque Center
08:40PM 32.6817 -110.7581 102° East 445 512 39,000  Level Albuquerque Center
08:41PM 32.6572 -110.6147 101° East 445 512 39,000  Level Albuquerque Center
08:42PM 32.6261 -110.4417 102° East 446 513 39,000  Level Albuquerque Center
08:43PM 32.6031 -110.3083 102° East 446 513 39,000  Level Albuquerque Center
08:44PM 32.5764 -110.1650 102° East 445 512 39,000  Level Albuquerque Center
08:45PM 32.5506 -110.0200 102° East 447 514 39,000  Level Albuquerque Center
08:46PM 32.5203 -109.8500 102° East 447 514 39,000  Level Albuquerque Center
08:47PM 32.4933 -109.7072 103° East 447 514 39,000  Level Albuquerque Center
08:48PM 32.4653 -109.5647 103° East 447 514 39,000  Level Albuquerque Center
08:49PM 32.4406 -109.4244 102° East 444 511 39,000  Level Albuquerque Center
08:50PM 32.4136 -109.2819 103° East 444 511 39,000  Level Albuquerque Center
08:51PM 32.3869 -109.1400 103° East 444 511 39,000  Level Albuquerque Center
08:52PM 32.3547 -108.9706 103° East 444 511 39,000  Level Albuquerque Center
08:53PM 32.3283 -108.8269 102° East 445 512 39,000  Level Albuquerque Center
08:54PM 32.3008 -108.6842 103° East 446 513 39,000  Level Albuquerque Center
08:55PM 32.2731 -108.5392 103° East 450 518 39,000  Level Albuquerque Center
08:56PM 32.2417 -108.3803 103° East 450 518 39,000  Level Albuquerque Center
08:57PM 32.2147 -108.2369 102° East 450 518 39,000  Level Albuquerque Center
08:58PM 32.1858 -108.0936 103° East 450 518 39,000  Level Albuquerque Center
08:59PM 32.1569 -107.9508 103° East 450 518 39,000  Level Albuquerque Center
09:00PM 32.1297 -107.8092 103° East 449 517 39,000  Level Albuquerque Center
09:01PM 32.1011 -107.6642 103° East 452 520 39,000  Level Albuquerque Center
09:02PM 32.0825 -107.4894 97° East 455 524 39,000  Level Albuquerque Center
09:03PM 32.0750 -107.3400 93° East 457 526 39,000  Level Albuquerque Center
09:04PM 32.0700 -107.1906 92° East 458 527 39,000  Level Albuquerque Center
09:05PM 32.0642 -107.0431 93° East 459 528 39,000  Level Albuquerque Center
09:06PM 32.0297 -106.9006 106° East 459 528 39,000  Level Albuquerque Center
09:07PM 31.9933 -106.7611 107° East 451 519 39,000  Level Albuquerque Center
09:08PM 31.9483 -106.5900 107° East 455 524 39,000  Level Albuquerque Center
09:09PM 31.9117 -106.4478 107° East 456 525 39,000  Level Albuquerque Center
09:10PM 31.8778 -106.3175 107° East 474 545 39,000  Level Albuquerque Center
09:11PM 31.8322 -106.1453 107° East 465 535 39,000  Level Albuquerque Center
09:12PM 31.7942 -106.0064 108° East 451 519 39,000  Level Albuquerque Center
09:14PM 31.7561 -105.8658 108° East 451 519 39,000  Level Albuquerque Center
09:15PM 31.7186 -105.7244 107° East 451 519 39,000  Level Albuquerque Center
09:16PM 31.6817 -105.5822 107° East 454 522 39,000  Level Albuquerque Center
09:17PM 31.6428 -105.4389 108° East 456 525 39,000  Level Albuquerque Center
09:18PM 31.6042 -105.2964 108° East 457 526 39,000  Level Albuquerque Center
09:19PM 31.5669 -105.1533 107° East 457 526 39,000  Level Albuquerque Center
09:20PM 31.5211 -104.9858 108° East 452 520 39,000  Level Albuquerque Center
09:21PM 31.4819 -104.8456 108° East 452 520 39,000  Level Albuquerque Center
09:22PM 31.4436 -104.7058 108° East 452 520 39,000  Level Albuquerque Center
09:23PM 31.4058 -104.5678 108° East 448 516 39,000  Level Albuquerque Center
09:24PM 31.3683 -104.4311 108° East 443 510 39,000  Level Albuquerque Center
09:25PM 31.3308 -104.2944 108° East 443 510 39,000  Level Albuquerque Center
09:26PM 31.2922 -104.1581 108° East 442 509 39,000  Level Albuquerque Center
09:27PM 31.2517 -104.0206 109° East 442 509 39,000  Level Albuquerque Center
09:28PM 31.2147 -103.8842 108° East 442 509 39,000  Level Albuquerque Center
09:29PM 31.1678 -103.7292 109° East 444 511 39,000  Level Albuquerque Center
09:30PM 31.1275 -103.5922 109° East 444 511 39,000  Level Albuquerque Center
09:31PM 31.0875 -103.4553 109° East 445 512 39,000  Level Albuquerque Center
09:32PM 31.0478 -103.3175 109° East 446 513 39,000  Level Albuquerque Center
09:33PM 31.0011 -103.1528 108° East 447 514 39,000  Level Albuquerque Center
09:34PM 30.9631 -103.0172 108° East 446 513 39,000  Level Albuquerque Center
09:35PM 30.9244 -102.8767 108° East 451 519 39,000  Level Albuquerque Center
09:36PM 30.8881 -102.7358 107° East 455 524 39,000  Level Albuquerque Center
09:37PM 30.8600 -102.6244 106° East 453 521 39,000  Level Houston Center
09:38PM 30.8236 -102.4842 107° East 454 522 39,000  Level Houston Center
09:39PM 30.7881 -102.3453 107° East 454 522 39,000  Level Houston Center
09:40PM 30.7517 -102.2072 107° East 454 522 39,000  Level Houston Center
09:41PM 30.7147 -102.0686 107° East 454 522 39,000  Level Houston Center
09:42PM 30.6778 -101.9303 107° East 454 522 39,000  Level Houston Center
09:43PM 30.6408 -101.7936 107° East 449 517 39,000  Level Houston Center
09:44PM 30.5969 -101.6264 107° East 450 518 39,000  Level Houston Center
09:45PM 30.5606 -101.4900 107° East 451 519 39,000  Level Houston Center
09:46PM 30.5225 -101.3500 107° East 452 520 39,000 -360 Level Houston Center
09:47PM 30.4850 -101.2094 107° East 453 521 38,300 -840 Descending Houston Center
09:48PM 30.4472 -101.0719 108° East 453 521 37,300 -660 Descending Houston Center
09:49PM 30.4089 -100.9383 108° East 452 520 37,000 -180 Descending Houston Center
09:50PM 30.3711 -100.7958 107° East 449 517 37,000  Level Houston Center
09:51PM 30.3331 -100.6581 108° East 450 518 37,000  Level Houston Center
09:52PM 30.2872 -100.4917 108° East 450 518 37,000 -60 Level Houston Center
09:53PM 30.2489 -100.3525 108° East 450 518 36,900  Descending Houston Center
09:54PM 30.2094 -100.2119 108° East 450 518 37,000  Climbing Houston Center
09:55PM 30.1697 -100.0703 108° East 453 521 37,000  Level Houston Center
09:56PM 30.1289 -99.9311 109° East 453 521 37,000  Level Houston Center
09:57PM 30.0892 -99.7919 108° East 453 521 37,000  Level Houston Center
09:58PM 30.0492 -99.6533 108° East 453 521 37,000  Level Houston Center
09:59PM 30.0100 -99.5142 108° East 455 524 37,000  Level Houston Center
10:00PM 29.9686 -99.3761 109° East 455 524 37,000  Level Houston Center
10:01PM 29.9308 -99.2381 107° East 454 522 37,000  Level Houston Center
10:02PM 29.8836 -99.1033 112° Southeast 454 522 37,000  Level Houston Center
10:03PM 29.8272 -98.9511 113° Southeast 444 511 37,000  Level Houston Center
10:04PM 29.7794 -98.8236 113° Southeast 436 502 37,000  Level Houston Center
10:05PM 29.7317 -98.6953 113° Southeast 436 502 37,000  Level Houston Center
10:06PM 29.6822 -98.5586 113° Southeast 434 499 37,000  Level Houston Center
10:07PM 29.6400 -98.4414 112° Southeast 435 501 37,000  Level Houston Center
10:08PM 29.6186 -98.2819 99° East 438 504 37,000  Level Houston Center
10:09PM 29.5964 -98.1442 100° East 437 503 37,000  Level Houston Center
10:11PM 29.5753 -98.0075 100° East 436 502 37,000  Level Houston Center
10:12PM 29.5519 -97.8589 100° East 438 504 37,000  Level Houston Center
10:13PM 29.5308 -97.7219 100° East 438 504 37,000  Level Houston Center
10:14PM 29.5094 -97.5856 100° East 438 504 37,000 -600 Level Houston Center
10:15PM 29.4872 -97.4483 101° East 438 504 35,900 -1,980 Descending Houston Center
10:16PM 29.4661 -97.3128 100° East 436 502 33,000 -2,880 Descending Houston Center
10:17PM 29.4436 -97.1708 100° East 448 516 30,100 -2,580 Descending Houston Center
10:18PM 29.4208 -97.0308 101° East 449 517 27,800 -2,220 Descending Houston Center
10:19PM 29.4031 -96.8908 98° East 448 516 25,600 -2,280 Descending Houston Center
10:20PM 29.3900 -96.7450 96° East 437 503 23,200 -2,400 Descending Houston Center
10:20PM 29.3833 -96.6831 97° East 428 493 22,100 -2,400 Descending Houston Center
10:21PM 29.3733 -96.5883 97° East 423 487 20,500 -2,220 Descending Houston Center
10:22PM 29.3600 -96.4533 96° East 411 473 18,300 -2,220 Descending Houston Center
10:23PM 29.3483 -96.3397 97° East 396 456 16,300 -2,040 Descending Houston Center
10:24PM 29.3406 -96.2344 95° East 386 444 14,500 -1,620 Descending Houston Center
10:25PM 29.3275 -96.1211 97° East 364 419 13,100 -1,320 Descending Houston Center
10:26PM 29.3606 -96.0342 66° East 313 360 11,900 -1,320 Descending Houston Center
10:27PM 29.4197 -95.9506 51° Northeast 304 350 10,500 -900 Descending Houston Center
10:28PM 29.4811 -95.8597 52° Northeast 273 314 10,000 -480 Descending Houston Center
10:29PM 29.5106 -95.8114 55° Northeast 267 307 9,600 -720 Descending Houston Center
10:29PM 29.5269 -95.7847 55° Northeast 256 295 9,200 -1,020 Descending Houston Center
10:30PM 29.5517 -95.7436 55° Northeast 260 299 8,600 -840 Descending Houston Center
10:30PM 29.5625 -95.7133 68° East 256 295 8,400 -900 Descending Houston Center
10:31PM 29.5825 -95.6714 61° Northeast 257 296 7,700 -1,200 Descending Houston Center
10:31PM 29.5925 -95.6475 64° Northeast 248 285 7,300 -1,140 Descending Houston Center
10:32PM 29.6147 -95.6006 61° Northeast 253 291 6,600 -1,020 Descending Houston Center
10:32PM 29.6242 -95.5789 63° Northeast 247 284 6,300 -1,080 Descending Houston Center
10:33PM 29.6428 -95.5331 65° Northeast 239 275 5,500 -1,020 Descending Houston Center
10:34PM 29.6761 -95.4717 58° Northeast 232 267 4,400 -1,140 Descending Houston Center
10:35PM 29.7200 -95.4250 43° Northeast 217 250 3,200 -1,320 Descending Houston Center
10:36PM 29.7153 -95.3628 95° East 188 216 1,800 -1,080 Descending Houston Center
10:37PM 29.6864 -95.3269 133° Southeast 158 182 1,100 -720 Descending Houston Center
10:38PM 29.6608 -95.2969 134° Southeast 144 166 400 -540 Descending Houston Center
10:39PM 29.6364 -95.2678 134° Southeast 141 162 100 -300 Descending Houston Center
10:41PM 29.6333 -95.2667 83° East  Level FlightAware Approximate